Terminal Aerodrome Forecast
Issued by NWS

Home | Current Version | Previous Version | Text Only | Print | Product List | Glossary Off
Versions: 1 2 3 4 5 6 7 8 9 10 11 12 13 14 15 16 17 18 19 20 21 22 23 24 25 26

184
FTUS43 KABR 181635 AAA
TAFATY
TAF AMD
KATY 181635Z 1817/1912 16007KT P6SM SCT008
      TEMPO 1817/1819 BKN008
     FM190200 16009KT P6SM BKN008
     FM190500 16010KT 3SM BR BKN008
     FM191100 16011KT 3SM BR BKN008=

USA.gov is the U.S. government's official web portal to all federal, state and local government web resources and services.